sensor_id;sensor_type;location;lat;lon;timestamp;P1;durP1;ratioP1;P2;durP2;ratioP2
30948;SDS011;17637;51.984;21.208;2023-06-22T00:01:46;40.90;;;37.05;;
30948;SDS011;17637;51.984;21.208;2023-06-22T00:04:18;39.05;;;35.50;;
30948;SDS011;17637;51.984;21.208;2023-06-22T00:06:50;35.65;;;32.47;;
30948;SDS011;17637;51.984;21.208;2023-06-22T00:09:22;28.63;;;26.02;;
30948;SDS011;17637;51.984;21.208;2023-06-22T00:11:54;33.25;;;30.17;;
30948;SDS011;17637;51.984;21.208;2023-06-22T00:14:26;36.42;;;33.00;;
30948;SDS011;17637;51.984;21.208;2023-06-22T00:16:58;34.92;;;31.60;;
30948;SDS011;17637;51.984;21.208;2023-06-22T00:19:30;35.78;;;32.40;;
30948;SDS011;17637;51.984;21.208;2023-06-22T00:22:02;33.83;;;30.73;;
30948;SDS011;17637;51.984;21.208;2023-06-22T00:24:34;30.98;;;28.08;;
30948;SDS011;17637;51.984;21.208;2023-06-22T00:27:06;34.90;;;31.73;;
30948;SDS011;17637;51.984;21.208;2023-06-22T00:29:38;36.35;;;32.95;;
30948;SDS011;17637;51.984;21.208;2023-06-22T00:32:10;32.20;;;29.30;;
30948;SDS011;17637;51.984;21.208;2023-06-22T00:34:42;34.22;;;31.13;;
30948;SDS011;17637;51.984;21.208;2023-06-22T00:37:14;30.10;;;27.50;;
30948;SDS011;17637;51.984;21.208;2023-06-22T00:39:45;39.45;;;35.75;;
30948;SDS011;17637;51.984;21.208;2023-06-22T00:42:17;38.50;;;34.80;;
30948;SDS011;17637;51.984;21.208;2023-06-22T00:44:49;33.70;;;30.60;;
30948;SDS011;17637;51.984;21.208;2023-06-22T00:47:21;33.78;;;30.77;;
30948;SDS011;17637;51.984;21.208;2023-06-22T00:49:53;39.10;;;35.58;;
30948;SDS011;17637;51.984;21.208;2023-06-22T00:52:24;33.65;;;30.45;;
30948;SDS011;17637;51.984;21.208;2023-06-22T00:55:02;33.35;;;30.25;;
30948;SDS011;17637;51.984;21.208;2023-06-22T00:57:34;32.15;;;29.30;;
30948;SDS011;17637;51.984;21.208;2023-06-22T01:00:08;30.70;;;27.83;;
30948;SDS011;17637;51.984;21.208;2023-06-22T01:02:43;32.92;;;30.02;;
30948;SDS011;17637;51.984;21.208;2023-06-22T01:05:18;32.33;;;29.42;;
30948;SDS011;17637;51.984;21.208;2023-06-22T01:10:52;33.50;;;30.27;;
30948;SDS011;17637;51.984;21.208;2023-06-22T01:13:38;32.95;;;29.65;;
30948;SDS011;17637;51.984;21.208;2023-06-22T01:16:23;32.28;;;29.27;;
30948;SDS011;17637;51.984;21.208;2023-06-22T01:19:00;35.10;;;31.63;;
30948;SDS011;17637;51.984;21.208;2023-06-22T01:21:37;33.05;;;30.00;;
30948;SDS011;17637;51.984;21.208;2023-06-22T01:30:04;31.77;;;28.67;;
30948;SDS011;17637;51.984;21.208;2023-06-22T01:32:38;32.55;;;29.60;;
30948;SDS011;17637;51.984;21.208;2023-06-22T01:35:10;37.33;;;33.47;;
30948;SDS011;17637;51.984;21.208;2023-06-22T01:37:44;35.92;;;32.65;;
30948;SDS011;17637;51.984;21.208;2023-06-22T01:40:16;35.35;;;32.15;;
30948;SDS011;17637;51.984;21.208;2023-06-22T01:42:51;34.95;;;31.75;;
30948;SDS011;17637;51.984;21.208;2023-06-22T01:45:23;39.28;;;35.75;;
30948;SDS011;17637;51.984;21.208;2023-06-22T01:47:56;31.08;;;28.05;;
30948;SDS011;17637;51.984;21.208;2023-06-22T01:50:28;47.15;;;40.95;;
30948;SDS011;17637;51.984;21.208;2023-06-22T01:53:01;39.35;;;35.65;;
30948;SDS011;17637;51.984;21.208;2023-06-22T01:55:32;38.35;;;34.78;;
30948;SDS011;17637;51.984;21.208;2023-06-22T01:58:04;37.13;;;33.60;;
30948;SDS011;17637;51.984;21.208;2023-06-22T02:00:37;41.92;;;38.05;;
30948;SDS011;17637;51.984;21.208;2023-06-22T02:03:11;39.90;;;36.20;;
30948;SDS011;17637;51.984;21.208;2023-06-22T02:05:54;39.53;;;35.83;;
30948;SDS011;17637;51.984;21.208;2023-06-22T02:08:38;36.40;;;32.97;;
30948;SDS011;17637;51.984;21.208;2023-06-22T02:13:46;42.75;;;38.63;;
30948;SDS011;17637;51.984;21.208;2023-06-22T02:16:19;33.92;;;30.83;;
30948;SDS011;17637;51.984;21.208;2023-06-22T02:18:51;43.47;;;39.47;;
30948;SDS011;17637;51.984;21.208;2023-06-22T02:21:23;39.22;;;35.35;;
30948;SDS011;17637;51.984;21.208;2023-06-22T02:23:55;42.17;;;38.17;;
30948;SDS011;17637;51.984;21.208;2023-06-22T02:26:27;38.80;;;35.03;;
30948;SDS011;17637;51.984;21.208;2023-06-22T02:28:59;35.72;;;32.60;;
30948;SDS011;17637;51.984;21.208;2023-06-22T02:31:31;42.17;;;37.60;;
30948;SDS011;17637;51.984;21.208;2023-06-22T02:34:03;37.03;;;33.53;;
30948;SDS011;17637;51.984;21.208;2023-06-22T02:36:35;35.03;;;31.52;;
30948;SDS011;17637;51.984;21.208;2023-06-22T02:39:07;41.25;;;37.60;;
30948;SDS011;17637;51.984;21.208;2023-06-22T02:41:38;37.28;;;33.85;;
30948;SDS011;17637;51.984;21.208;2023-06-22T02:44:10;36.55;;;32.95;;
30948;SDS011;17637;51.984;21.208;2023-06-22T02:46:42;37.58;;;34.17;;
30948;SDS011;17637;51.984;21.208;2023-06-22T02:49:14;39.42;;;35.83;;
30948;SDS011;17637;51.984;21.208;2023-06-22T02:51:47;41.20;;;37.22;;
30948;SDS011;17637;51.984;21.208;2023-06-22T02:54:19;41.13;;;37.28;;
30948;SDS011;17637;51.984;21.208;2023-06-22T02:56:52;35.35;;;31.95;;
30948;SDS011;17637;51.984;21.208;2023-06-22T02:59:25;40.10;;;36.25;;
30948;SDS011;17637;51.984;21.208;2023-06-22T03:01:58;39.10;;;35.30;;
30948;SDS011;17637;51.984;21.208;2023-06-22T03:04:39;31.83;;;28.88;;
30948;SDS011;17637;51.984;21.208;2023-06-22T03:07:11;37.75;;;34.00;;
30948;SDS011;17637;51.984;21.208;2023-06-22T03:09:43;38.22;;;34.75;;
30948;SDS011;17637;51.984;21.208;2023-06-22T03:12:14;37.05;;;33.42;;
30948;SDS011;17637;51.984;21.208;2023-06-22T03:14:46;43.42;;;39.13;;
30948;SDS011;17637;51.984;21.208;2023-06-22T03:17:18;39.45;;;35.45;;
30948;SDS011;17637;51.984;21.208;2023-06-22T03:19:50;41.20;;;37.00;;
30948;SDS011;17637;51.984;21.208;2023-06-22T03:22:22;38.40;;;34.78;;
30948;SDS011;17637;51.984;21.208;2023-06-22T03:24:54;40.70;;;36.75;;
30948;SDS011;17637;51.984;21.208;2023-06-22T03:27:25;46.42;;;41.67;;
30948;SDS011;17637;51.984;21.208;2023-06-22T03:29:57;40.53;;;36.50;;
30948;SDS011;17637;51.984;21.208;2023-06-22T03:32:29;47.30;;;42.50;;
30948;SDS011;17637;51.984;21.208;2023-06-22T03:35:01;40.72;;;36.50;;
30948;SDS011;17637;51.984;21.208;2023-06-22T03:37:33;49.92;;;45.00;;
30948;SDS011;17637;51.984;21.208;2023-06-22T03:40:06;45.90;;;41.22;;
30948;SDS011;17637;51.984;21.208;2023-06-22T03:42:38;47.53;;;42.97;;
30948;SDS011;17637;51.984;21.208;2023-06-22T03:45:10;49.25;;;44.38;;
30948;SDS011;17637;51.984;21.208;2023-06-22T03:47:42;51.72;;;46.58;;
30948;SDS011;17637;51.984;21.208;2023-06-22T03:50:14;46.70;;;41.92;;
30948;SDS011;17637;51.984;21.208;2023-06-22T03:52:46;50.13;;;44.95;;
30948;SDS011;17637;51.984;21.208;2023-06-22T03:55:21;48.40;;;43.55;;
30948;SDS011;17637;51.984;21.208;2023-06-22T03:57:53;51.40;;;45.97;;
30948;SDS011;17637;51.984;21.208;2023-06-22T04:00:28;52.50;;;46.75;;
30948;SDS011;17637;51.984;21.208;2023-06-22T04:03:00;57.25;;;51.10;;
30948;SDS011;17637;51.984;21.208;2023-06-22T04:05:32;70.22;;;57.88;;
30948;SDS011;17637;51.984;21.208;2023-06-22T04:08:05;66.90;;;58.28;;
30948;SDS011;17637;51.984;21.208;2023-06-22T04:10:37;61.33;;;53.60;;
30948;SDS011;17637;51.984;21.208;2023-06-22T04:13:09;67.38;;;57.08;;
30948;SDS011;17637;51.984;21.208;2023-06-22T04:15:41;57.38;;;50.67;;
30948;SDS011;17637;51.984;21.208;2023-06-22T04:18:13;67.85;;;60.03;;
30948;SDS011;17637;51.984;21.208;2023-06-22T04:20:45;66.30;;;55.92;;
30948;SDS011;17637;51.984;21.208;2023-06-22T04:23:18;66.07;;;56.95;;
30948;SDS011;17637;51.984;21.208;2023-06-22T04:25:50;77.95;;;64.22;;
30948;SDS011;17637;51.984;21.208;2023-06-22T04:28:22;70.85;;;60.85;;
30948;SDS011;17637;51.984;21.208;2023-06-22T04:30:57;75.80;;;61.00;;
30948;SDS011;17637;51.984;21.208;2023-06-22T04:33:34;66.45;;;56.78;;
30948;SDS011;17637;51.984;21.208;2023-06-22T04:36:05;86.40;;;70.20;;
30948;SDS011;17637;51.984;21.208;2023-06-22T04:38:37;92.18;;;72.20;;
30948;SDS011;17637;51.984;21.208;2023-06-22T04:41:09;69.28;;;57.63;;
30948;SDS011;17637;51.984;21.208;2023-06-22T04:43:45;79.40;;;66.20;;
30948;SDS011;17637;51.984;21.208;2023-06-22T04:46:25;71.37;;;58.27;;
30948;SDS011;17637;51.984;21.208;2023-06-22T04:48:57;85.97;;;68.85;;
30948;SDS011;17637;51.984;21.208;2023-06-22T04:51:29;59.95;;;53.40;;
30948;SDS011;17637;51.984;21.208;2023-06-22T04:54:02;78.38;;;61.40;;
30948;SDS011;17637;51.984;21.208;2023-06-22T04:56:33;72.20;;;60.50;;
30948;SDS011;17637;51.984;21.208;2023-06-22T04:59:06;71.03;;;61.05;;
30948;SDS011;17637;51.984;21.208;2023-06-22T05:01:38;63.28;;;54.97;;
30948;SDS011;17637;51.984;21.208;2023-06-22T05:04:10;81.07;;;68.45;;
30948;SDS011;17637;51.984;21.208;2023-06-22T05:06:42;75.97;;;66.72;;
30948;SDS011;17637;51.984;21.208;2023-06-22T05:09:14;64.65;;;57.17;;
30948;SDS011;17637;51.984;21.208;2023-06-22T05:11:46;66.22;;;58.50;;
30948;SDS011;17637;51.984;21.208;2023-06-22T05:14:18;67.65;;;59.53;;
30948;SDS011;17637;51.984;21.208;2023-06-22T05:16:50;59.33;;;51.90;;
30948;SDS011;17637;51.984;21.208;2023-06-22T05:19:23;59.50;;;53.05;;
30948;SDS011;17637;51.984;21.208;2023-06-22T05:21:55;63.00;;;52.55;;
30948;SDS011;17637;51.984;21.208;2023-06-22T05:24:27;56.50;;;50.40;;
30948;SDS011;17637;51.984;21.208;2023-06-22T05:26:58;52.25;;;46.67;;
30948;SDS011;17637;51.984;21.208;2023-06-22T05:29:30;60.28;;;53.88;;
30948;SDS011;17637;51.984;21.208;2023-06-22T05:32:02;59.08;;;52.13;;
30948;SDS011;17637;51.984;21.208;2023-06-22T05:34:35;58.22;;;51.88;;
30948;SDS011;17637;51.984;21.208;2023-06-22T05:37:06;57.63;;;51.35;;
30948;SDS011;17637;51.984;21.208;2023-06-22T05:39:41;59.10;;;52.22;;
30948;SDS011;17637;51.984;21.208;2023-06-22T05:42:12;57.20;;;51.15;;
30948;SDS011;17637;51.984;21.208;2023-06-22T05:44:44;56.15;;;50.25;;
30948;SDS011;17637;51.984;21.208;2023-06-22T05:47:16;54.17;;;47.83;;
30948;SDS011;17637;51.984;21.208;2023-06-22T05:49:49;52.70;;;47.03;;
30948;SDS011;17637;51.984;21.208;2023-06-22T05:52:21;54.97;;;49.22;;
30948;SDS011;17637;51.984;21.208;2023-06-22T05:54:53;47.55;;;42.40;;
30948;SDS011;17637;51.984;21.208;2023-06-22T05:57:24;53.33;;;47.65;;
30948;SDS011;17637;51.984;21.208;2023-06-22T05:59:56;50.35;;;45.15;;
30948;SDS011;17637;51.984;21.208;2023-06-22T06:02:28;51.13;;;44.85;;
30948;SDS011;17637;51.984;21.208;2023-06-22T06:05:00;47.47;;;42.45;;
30948;SDS011;17637;51.984;21.208;2023-06-22T06:07:34;50.30;;;45.30;;
30948;SDS011;17637;51.984;21.208;2023-06-22T06:10:06;47.30;;;42.35;;
30948;SDS011;17637;51.984;21.208;2023-06-22T06:12:38;52.15;;;46.90;;
30948;SDS011;17637;51.984;21.208;2023-06-22T06:15:10;51.72;;;46.35;;
30948;SDS011;17637;51.984;21.208;2023-06-22T06:17:51;53.45;;;46.17;;
30948;SDS011;17637;51.984;21.208;2023-06-22T06:20:25;51.47;;;46.20;;
30948;SDS011;17637;51.984;21.208;2023-06-22T06:22:59;54.05;;;48.55;;
30948;SDS011;17637;51.984;21.208;2023-06-22T06:25:31;42.53;;;38.08;;
30948;SDS011;17637;51.984;21.208;2023-06-22T06:28:03;50.05;;;44.83;;
30948;SDS011;17637;51.984;21.208;2023-06-22T06:30:35;45.20;;;40.60;;
30948;SDS011;17637;51.984;21.208;2023-06-22T06:33:08;44.63;;;39.78;;
30948;SDS011;17637;51.984;21.208;2023-06-22T06:35:40;50.63;;;42.13;;
30948;SDS011;17637;51.984;21.208;2023-06-22T06:38:12;47.67;;;42.83;;
30948;SDS011;17637;51.984;21.208;2023-06-22T06:40:44;43.25;;;38.88;;
30948;SDS011;17637;51.984;21.208;2023-06-22T06:43:16;48.08;;;43.17;;
30948;SDS011;17637;51.984;21.208;2023-06-22T06:45:48;43.70;;;39.00;;
30948;SDS011;17637;51.984;21.208;2023-06-22T06:48:22;43.50;;;38.95;;
30948;SDS011;17637;51.984;21.208;2023-06-22T06:50:54;43.67;;;38.83;;
30948;SDS011;17637;51.984;21.208;2023-06-22T06:53:26;41.72;;;37.50;;
30948;SDS011;17637;51.984;21.208;2023-06-22T06:55:59;38.92;;;34.95;;
30948;SDS011;17637;51.984;21.208;2023-06-22T06:58:32;38.80;;;34.97;;
30948;SDS011;17637;51.984;21.208;2023-06-22T07:01:04;41.17;;;37.20;;
30948;SDS011;17637;51.984;21.208;2023-06-22T07:03:36;38.28;;;34.42;;
30948;SDS011;17637;51.984;21.208;2023-06-22T07:06:08;39.90;;;35.78;;
30948;SDS011;17637;51.984;21.208;2023-06-22T07:08:40;43.13;;;38.85;;
30948;SDS011;17637;51.984;21.208;2023-06-22T07:11:12;39.17;;;35.25;;
30948;SDS011;17637;51.984;21.208;2023-06-22T07:13:44;41.78;;;37.33;;
30948;SDS011;17637;51.984;21.208;2023-06-22T07:16:16;41.60;;;37.28;;
30948;SDS011;17637;51.984;21.208;2023-06-22T07:18:48;39.95;;;35.95;;
30948;SDS011;17637;51.984;21.208;2023-06-22T07:21:20;40.67;;;36.42;;
30948;SDS011;17637;51.984;21.208;2023-06-22T07:23:53;37.80;;;33.80;;
30948;SDS011;17637;51.984;21.208;2023-06-22T07:26:25;34.58;;;31.15;;
30948;SDS011;17637;51.984;21.208;2023-06-22T07:28:57;33.53;;;30.10;;
30948;SDS011;17637;51.984;21.208;2023-06-22T07:31:29;32.50;;;29.38;;
30948;SDS011;17637;51.984;21.208;2023-06-22T07:34:01;31.10;;;27.92;;
30948;SDS011;17637;51.984;21.208;2023-06-22T07:36:33;31.80;;;28.75;;
30948;SDS011;17637;51.984;21.208;2023-06-22T07:39:07;32.70;;;29.42;;
30948;SDS011;17637;51.984;21.208;2023-06-22T07:41:40;31.05;;;27.92;;
30948;SDS011;17637;51.984;21.208;2023-06-22T07:44:15;28.33;;;24.02;;
30948;SDS011;17637;51.984;21.208;2023-06-22T07:46:47;27.45;;;24.55;;
30948;SDS011;17637;51.984;21.208;2023-06-22T07:49:19;30.20;;;27.17;;
30948;SDS011;17637;51.984;21.208;2023-06-22T07:51:52;26.98;;;24.50;;
30948;SDS011;17637;51.984;21.208;2023-06-22T07:54:24;26.45;;;23.75;;
30948;SDS011;17637;51.984;21.208;2023-06-22T07:56:55;27.23;;;24.42;;
30948;SDS011;17637;51.984;21.208;2023-06-22T07:59:27;23.92;;;21.48;;
30948;SDS011;17637;51.984;21.208;2023-06-22T08:01:59;23.45;;;21.02;;
30948;SDS011;17637;51.984;21.208;2023-06-22T08:04:31;20.20;;;18.15;;
30948;SDS011;17637;51.984;21.208;2023-06-22T08:07:05;18.45;;;16.55;;
30948;SDS011;17637;51.984;21.208;2023-06-22T08:09:37;16.80;;;15.00;;
30948;SDS011;17637;51.984;21.208;2023-06-22T08:12:09;17.15;;;15.55;;
30948;SDS011;17637;51.984;21.208;2023-06-22T08:14:42;15.18;;;13.48;;
30948;SDS011;17637;51.984;21.208;2023-06-22T08:17:17;14.88;;;13.07;;
30948;SDS011;17637;51.984;21.208;2023-06-22T08:19:56;14.38;;;12.20;;
30948;SDS011;17637;51.984;21.208;2023-06-22T08:22:28;9.90;;;8.90;;
30948;SDS011;17637;51.984;21.208;2023-06-22T08:25:03;11.57;;;8.95;;
30948;SDS011;17637;51.984;21.208;2023-06-22T08:27:35;10.05;;;9.15;;
30948;SDS011;17637;51.984;21.208;2023-06-22T08:30:09;10.48;;;9.25;;
30948;SDS011;17637;51.984;21.208;2023-06-22T08:32:42;10.45;;;8.50;;
30948;SDS011;17637;51.984;21.208;2023-06-22T08:35:14;9.20;;;7.80;;
30948;SDS011;17637;51.984;21.208;2023-06-22T08:37:46;13.25;;;8.20;;
30948;SDS011;17637;51.984;21.208;2023-06-22T08:40:23;8.68;;;7.78;;
30948;SDS011;17637;51.984;21.208;2023-06-22T08:42:56;7.07;;;6.38;;
30948;SDS011;17637;51.984;21.208;2023-06-22T08:45:28;10.63;;;8.38;;
30948;SDS011;17637;51.984;21.208;2023-06-22T08:48:01;8.93;;;8.02;;
30948;SDS011;17637;51.984;21.208;2023-06-22T08:50:35;8.65;;;7.70;;
30948;SDS011;17637;51.984;21.208;2023-06-22T08:53:08;8.15;;;6.80;;
30948;SDS011;17637;51.984;21.208;2023-06-22T08:55:39;6.60;;;5.32;;
30948;SDS011;17637;51.984;21.208;2023-06-22T08:58:11;7.57;;;5.80;;
30948;SDS011;17637;51.984;21.208;2023-06-22T09:00:43;7.25;;;5.63;;
30948;SDS011;17637;51.984;21.208;2023-06-22T09:03:15;7.43;;;5.15;;
30948;SDS011;17637;51.984;21.208;2023-06-22T09:05:48;6.47;;;5.40;;
30948;SDS011;17637;51.984;21.208;2023-06-22T09:08:20;7.47;;;6.07;;
30948;SDS011;17637;51.984;21.208;2023-06-22T09:10:52;6.28;;;5.47;;
30948;SDS011;17637;51.984;21.208;2023-06-22T09:13:24;6.63;;;5.40;;
30948;SDS011;17637;51.984;21.208;2023-06-22T09:15:58;6.22;;;5.43;;
30948;SDS011;17637;51.984;21.208;2023-06-22T09:18:31;5.35;;;4.75;;
30948;SDS011;17637;51.984;21.208;2023-06-22T09:21:03;6.32;;;5.30;;
30948;SDS011;17637;51.984;21.208;2023-06-22T09:23:35;7.90;;;4.82;;
30948;SDS011;17637;51.984;21.208;2023-06-22T09:26:07;6.07;;;4.68;;
30948;SDS011;17637;51.984;21.208;2023-06-22T09:28:39;6.82;;;4.90;;
30948;SDS011;17637;51.984;21.208;2023-06-22T09:31:14;7.25;;;5.35;;
30948;SDS011;17637;51.984;21.208;2023-06-22T09:33:47;6.75;;;5.30;;
30948;SDS011;17637;51.984;21.208;2023-06-22T09:36:20;6.07;;;5.05;;
30948;SDS011;17637;51.984;21.208;2023-06-22T09:38:54;6.35;;;4.93;;
30948;SDS011;17637;51.984;21.208;2023-06-22T09:41:28;4.85;;;3.85;;
30948;SDS011;17637;51.984;21.208;2023-06-22T09:44:00;9.38;;;4.50;;
30948;SDS011;17637;51.984;21.208;2023-06-22T09:46:32;8.60;;;4.28;;
30948;SDS011;17637;51.984;21.208;2023-06-22T09:49:04;6.35;;;3.67;;
30948;SDS011;17637;51.984;21.208;2023-06-22T09:51:35;4.25;;;2.97;;
30948;SDS011;17637;51.984;21.208;2023-06-22T09:54:07;5.00;;;3.25;;
30948;SDS011;17637;51.984;21.208;2023-06-22T09:56:39;5.13;;;3.33;;
30948;SDS011;17637;51.984;21.208;2023-06-22T09:59:11;5.35;;;3.30;;
30948;SDS011;17637;51.984;21.208;2023-06-22T10:01:49;4.72;;;3.28;;
30948;SDS011;17637;51.984;21.208;2023-06-22T10:04:22;5.05;;;3.00;;
30948;SDS011;17637;51.984;21.208;2023-06-22T10:06:54;4.20;;;3.08;;
30948;SDS011;17637;51.984;21.208;2023-06-22T10:09:25;4.30;;;2.90;;
30948;SDS011;17637;51.984;21.208;2023-06-22T10:11:57;5.00;;;3.30;;
30948;SDS011;17637;51.984;21.208;2023-06-22T10:14:29;3.97;;;2.97;;
30948;SDS011;17637;51.984;21.208;2023-06-22T10:17:02;5.55;;;2.67;;
30948;SDS011;17637;51.984;21.208;2023-06-22T10:19:34;5.40;;;3.05;;
30948;SDS011;17637;51.984;21.208;2023-06-22T10:22:10;5.03;;;3.47;;
30948;SDS011;17637;51.984;21.208;2023-06-22T10:24:42;6.38;;;3.85;;
30948;SDS011;17637;51.984;21.208;2023-06-22T10:27:16;6.63;;;3.38;;
30948;SDS011;17637;51.984;21.208;2023-06-22T10:29:47;5.20;;;3.33;;
30948;SDS011;17637;51.984;21.208;2023-06-22T10:32:19;5.60;;;3.67;;
30948;SDS011;17637;51.984;21.208;2023-06-22T10:34:51;8.10;;;3.50;;
30948;SDS011;17637;51.984;21.208;2023-06-22T10:37:23;5.30;;;3.05;;
30948;SDS011;17637;51.984;21.208;2023-06-22T10:39:55;5.82;;;3.45;;
30948;SDS011;17637;51.984;21.208;2023-06-22T10:42:28;3.85;;;2.92;;
30948;SDS011;17637;51.984;21.208;2023-06-22T10:45:00;4.07;;;2.78;;
30948;SDS011;17637;51.984;21.208;2023-06-22T10:47:31;3.20;;;2.92;;
30948;SDS011;17637;51.984;21.208;2023-06-22T10:50:04;3.55;;;2.70;;
30948;SDS011;17637;51.984;21.208;2023-06-22T10:52:36;4.43;;;3.20;;
30948;SDS011;17637;51.984;21.208;2023-06-22T10:55:08;4.57;;;2.83;;
30948;SDS011;17637;51.984;21.208;2023-06-22T10:57:41;5.60;;;3.10;;
30948;SDS011;17637;51.984;21.208;2023-06-22T11:00:15;4.03;;;2.60;;
30948;SDS011;17637;51.984;21.208;2023-06-22T11:02:47;3.75;;;3.08;;
30948;SDS011;17637;51.984;21.208;2023-06-22T11:05:20;5.40;;;2.67;;
30948;SDS011;17637;51.984;21.208;2023-06-22T11:07:51;3.53;;;3.22;;
30948;SDS011;17637;51.984;21.208;2023-06-22T11:10:23;5.40;;;3.20;;
30948;SDS011;17637;51.984;21.208;2023-06-22T11:12:55;5.47;;;3.35;;
30948;SDS011;17637;51.984;21.208;2023-06-22T11:15:29;3.88;;;2.92;;
30948;SDS011;17637;51.984;21.208;2023-06-22T11:18:01;4.38;;;3.58;;
30948;SDS011;17637;51.984;21.208;2023-06-22T11:20:33;4.07;;;2.85;;
30948;SDS011;17637;51.984;21.208;2023-06-22T11:23:10;5.50;;;3.28;;
30948;SDS011;17637;51.984;21.208;2023-06-22T11:25:43;6.38;;;3.35;;
30948;SDS011;17637;51.984;21.208;2023-06-22T11:28:15;6.80;;;3.25;;
30948;SDS011;17637;51.984;21.208;2023-06-22T11:30:47;5.68;;;3.60;;
30948;SDS011;17637;51.984;21.208;2023-06-22T11:33:22;7.00;;;3.67;;
30948;SDS011;17637;51.984;21.208;2023-06-22T11:35:53;6.45;;;3.75;;
30948;SDS011;17637;51.984;21.208;2023-06-22T11:38:28;5.60;;;3.90;;
30948;SDS011;17637;51.984;21.208;2023-06-22T11:40:59;5.22;;;3.72;;
30948;SDS011;17637;51.984;21.208;2023-06-22T11:43:34;3.88;;;3.47;;
30948;SDS011;17637;51.984;21.208;2023-06-22T11:46:07;5.18;;;3.80;;
30948;SDS011;17637;51.984;21.208;2023-06-22T11:48:39;5.28;;;3.83;;
30948;SDS011;17637;51.984;21.208;2023-06-22T11:51:11;5.68;;;3.80;;
30948;SDS011;17637;51.984;21.208;2023-06-22T11:53:43;4.90;;;3.55;;
30948;SDS011;17637;51.984;21.208;2023-06-22T11:56:17;6.43;;;4.00;;
30948;SDS011;17637;51.984;21.208;2023-06-22T11:58:49;5.53;;;3.67;;
30948;SDS011;17637;51.984;21.208;2023-06-22T12:01:21;5.53;;;3.83;;
30948;SDS011;17637;51.984;21.208;2023-06-22T12:03:53;5.15;;;3.63;;
30948;SDS011;17637;51.984;21.208;2023-06-22T12:06:25;6.00;;;3.80;;
30948;SDS011;17637;51.984;21.208;2023-06-22T12:08:57;6.45;;;3.83;;
30948;SDS011;17637;51.984;21.208;2023-06-22T12:11:30;9.55;;;4.38;;
30948;SDS011;17637;51.984;21.208;2023-06-22T12:14:02;6.07;;;4.05;;
30948;SDS011;17637;51.984;21.208;2023-06-22T12:16:35;7.22;;;4.25;;
30948;SDS011;17637;51.984;21.208;2023-06-22T12:19:07;6.07;;;3.90;;
30948;SDS011;17637;51.984;21.208;2023-06-22T12:21:40;5.70;;;4.32;;
30948;SDS011;17637;51.984;21.208;2023-06-22T12:24:12;7.63;;;4.35;;
30948;SDS011;17637;51.984;21.208;2023-06-22T12:26:44;5.55;;;4.03;;
30948;SDS011;17637;51.984;21.208;2023-06-22T12:29:15;6.47;;;4.22;;
30948;SDS011;17637;51.984;21.208;2023-06-22T12:31:47;7.00;;;4.00;;
30948;SDS011;17637;51.984;21.208;2023-06-22T12:34:20;5.13;;;4.00;;
30948;SDS011;17637;51.984;21.208;2023-06-22T12:36:54;8.25;;;4.38;;
30948;SDS011;17637;51.984;21.208;2023-06-22T12:39:26;11.75;;;4.60;;
30948;SDS011;17637;51.984;21.208;2023-06-22T12:41:58;4.72;;;3.70;;
30948;SDS011;17637;51.984;21.208;2023-06-22T12:44:30;5.10;;;4.00;;
30948;SDS011;17637;51.984;21.208;2023-06-22T12:47:02;4.93;;;4.20;;
30948;SDS011;17637;51.984;21.208;2023-06-22T12:49:34;5.22;;;4.43;;
30948;SDS011;17637;51.984;21.208;2023-06-22T12:52:10;5.72;;;4.45;;
30948;SDS011;17637;51.984;21.208;2023-06-22T12:54:43;8.27;;;5.20;;
30948;SDS011;17637;51.984;21.208;2023-06-22T12:57:26;4.75;;;4.10;;
30948;SDS011;17637;51.984;21.208;2023-06-22T12:59:57;7.95;;;4.28;;
30948;SDS011;17637;51.984;21.208;2023-06-22T13:02:33;5.60;;;4.20;;
30948;SDS011;17637;51.984;21.208;2023-06-22T13:05:05;7.82;;;4.60;;
30948;SDS011;17637;51.984;21.208;2023-06-22T13:07:38;7.00;;;4.45;;
30948;SDS011;17637;51.984;21.208;2023-06-22T13:10:10;5.53;;;4.47;;
30948;SDS011;17637;51.984;21.208;2023-06-22T13:12:42;5.65;;;3.92;;
30948;SDS011;17637;51.984;21.208;2023-06-22T13:15:14;6.80;;;4.70;;
30948;SDS011;17637;51.984;21.208;2023-06-22T13:17:45;6.32;;;4.20;;
30948;SDS011;17637;51.984;21.208;2023-06-22T13:20:17;4.80;;;4.22;;
30948;SDS011;17637;51.984;21.208;2023-06-22T13:22:49;4.38;;;3.88;;
30948;SDS011;17637;51.984;21.208;2023-06-22T13:25:21;6.20;;;4.30;;
30948;SDS011;17637;51.984;21.208;2023-06-22T13:27:55;6.70;;;4.40;;
30948;SDS011;17637;51.984;21.208;2023-06-22T13:30:27;6.63;;;3.67;;
30948;SDS011;17637;51.984;21.208;2023-06-22T13:32:59;6.03;;;4.22;;
30948;SDS011;17637;51.984;21.208;2023-06-22T13:35:31;5.10;;;3.97;;
30948;SDS011;17637;51.984;21.208;2023-06-22T13:38:04;6.10;;;3.88;;
30948;SDS011;17637;51.984;21.208;2023-06-22T13:40:36;5.72;;;4.43;;
30948;SDS011;17637;51.984;21.208;2023-06-22T13:43:12;4.70;;;4.18;;
30948;SDS011;17637;51.984;21.208;2023-06-22T13:45:43;7.60;;;4.28;;
30948;SDS011;17637;51.984;21.208;2023-06-22T13:48:15;5.65;;;4.13;;
30948;SDS011;17637;51.984;21.208;2023-06-22T13:50:47;7.15;;;3.70;;
30948;SDS011;17637;51.984;21.208;2023-06-22T13:53:19;4.93;;;4.18;;
30948;SDS011;17637;51.984;21.208;2023-06-22T13:55:51;6.60;;;4.18;;
30948;SDS011;17637;51.984;21.208;2023-06-22T13:58:25;6.78;;;4.35;;
30948;SDS011;17637;51.984;21.208;2023-06-22T14:00:57;5.82;;;3.97;;
30948;SDS011;17637;51.984;21.208;2023-06-22T14:03:29;5.18;;;4.00;;
30948;SDS011;17637;51.984;21.208;2023-06-22T14:06:01;4.00;;;3.28;;
30948;SDS011;17637;51.984;21.208;2023-06-22T14:08:33;6.55;;;4.30;;
30948;SDS011;17637;51.984;21.208;2023-06-22T14:11:12;7.65;;;3.80;;
30948;SDS011;17637;51.984;21.208;2023-06-22T14:13:45;6.80;;;4.05;;
30948;SDS011;17637;51.984;21.208;2023-06-22T14:16:17;6.95;;;4.03;;
30948;SDS011;17637;51.984;21.208;2023-06-22T14:18:49;6.45;;;3.95;;
30948;SDS011;17637;51.984;21.208;2023-06-22T14:21:21;9.20;;;4.13;;
30948;SDS011;17637;51.984;21.208;2023-06-22T14:23:57;8.02;;;4.38;;
30948;SDS011;17637;51.984;21.208;2023-06-22T14:26:28;5.07;;;3.80;;
30948;SDS011;17637;51.984;21.208;2023-06-22T14:29:00;7.40;;;4.22;;
30948;SDS011;17637;51.984;21.208;2023-06-22T14:31:32;5.57;;;3.90;;
30948;SDS011;17637;51.984;21.208;2023-06-22T14:34:04;5.43;;;3.65;;
30948;SDS011;17637;51.984;21.208;2023-06-22T14:36:37;11.10;;;3.88;;
30948;SDS011;17637;51.984;21.208;2023-06-22T14:39:09;5.05;;;3.50;;
30948;SDS011;17637;51.984;21.208;2023-06-22T14:41:41;4.13;;;3.40;;
30948;SDS011;17637;51.984;21.208;2023-06-22T14:44:13;6.70;;;4.40;;
30948;SDS011;17637;51.984;21.208;2023-06-22T14:46:46;5.65;;;3.83;;
30948;SDS011;17637;51.984;21.208;2023-06-22T14:49:18;4.22;;;3.60;;
30948;SDS011;17637;51.984;21.208;2023-06-22T14:51:52;5.55;;;3.20;;
30948;SDS011;17637;51.984;21.208;2023-06-22T14:54:24;8.80;;;4.15;;
30948;SDS011;17637;51.984;21.208;2023-06-22T14:56:56;4.97;;;3.60;;
30948;SDS011;17637;51.984;21.208;2023-06-22T14:59:29;5.20;;;3.70;;
30948;SDS011;17637;51.984;21.208;2023-06-22T15:02:01;5.65;;;3.67;;
30948;SDS011;17637;51.984;21.208;2023-06-22T15:04:33;5.18;;;3.63;;